sensor_id;sensor_type;location;lat;lon;timestamp;P1;durP1;ratioP1;P2;durP2;ratioP2
7813;SDS011;3952;48.364;16.022;2022-09-13T00:01:22;5.10;;;4.80;;
7813;SDS011;3952;48.364;16.022;2022-09-13T00:03:50;4.53;;;4.13;;
7813;SDS011;3952;48.364;16.022;2022-09-13T00:06:18;4.30;;;4.10;;
7813;SDS011;3952;48.364;16.022;2022-09-13T00:08:46;4.97;;;4.57;;
7813;SDS011;3952;48.364;16.022;2022-09-13T00:11:14;4.50;;;4.30;;
7813;SDS011;3952;48.364;16.022;2022-09-13T00:13:42;4.57;;;4.23;;
7813;SDS011;3952;48.364;16.022;2022-09-13T00:16:10;4.80;;;4.50;;
7813;SDS011;3952;48.364;16.022;2022-09-13T00:18:38;5.30;;;4.33;;
7813;SDS011;3952;48.364;16.022;2022-09-13T00:21:08;4.00;;;3.80;;
7813;SDS011;3952;48.364;16.022;2022-09-13T00:23:36;4.43;;;4.13;;
7813;SDS011;3952;48.364;16.022;2022-09-13T00:26:05;4.37;;;4.07;;
7813;SDS011;3952;48.364;16.022;2022-09-13T00:28:33;4.70;;;4.50;;
7813;SDS011;3952;48.364;16.022;2022-09-13T00:31:00;4.43;;;4.20;;
7813;SDS011;3952;48.364;16.022;2022-09-13T00:33:29;4.60;;;4.30;;
7813;SDS011;3952;48.364;16.022;2022-09-13T00:35:56;4.50;;;4.20;;
7813;SDS011;3952;48.364;16.022;2022-09-13T00:38:24;4.20;;;4.00;;
7813;SDS011;3952;48.364;16.022;2022-09-13T00:40:52;4.30;;;4.10;;
7813;SDS011;3952;48.364;16.022;2022-09-13T00:43:20;5.07;;;4.77;;
7813;SDS011;3952;48.364;16.022;2022-09-13T00:46:05;5.07;;;4.67;;
7813;SDS011;3952;48.364;16.022;2022-09-13T00:48:33;5.37;;;5.07;;
7813;SDS011;3952;48.364;16.022;2022-09-13T00:51:02;4.73;;;4.43;;
7813;SDS011;3952;48.364;16.022;2022-09-13T00:53:35;5.37;;;5.07;;
7813;SDS011;3952;48.364;16.022;2022-09-13T00:56:05;5.00;;;4.73;;
7813;SDS011;3952;48.364;16.022;2022-09-13T00:58:37;4.97;;;4.70;;
7813;SDS011;3952;48.364;16.022;2022-09-13T01:01:08;4.87;;;4.43;;
7813;SDS011;3952;48.364;16.022;2022-09-13T01:03:37;4.57;;;4.23;;
7813;SDS011;3952;48.364;16.022;2022-09-13T01:06:07;4.83;;;4.43;;
7813;SDS011;3952;48.364;16.022;2022-09-13T01:08:38;4.83;;;4.43;;
7813;SDS011;3952;48.364;16.022;2022-09-13T01:11:09;4.50;;;4.10;;
7813;SDS011;3952;48.364;16.022;2022-09-13T01:13:42;4.10;;;3.90;;
7813;SDS011;3952;48.364;16.022;2022-09-13T01:16:11;4.30;;;3.70;;
7813;SDS011;3952;48.364;16.022;2022-09-13T01:18:38;4.23;;;3.93;;
7813;SDS011;3952;48.364;16.022;2022-09-13T01:21:11;3.67;;;3.40;;
7813;SDS011;3952;48.364;16.022;2022-09-13T01:30:08;4.17;;;3.90;;
7813;SDS011;3952;48.364;16.022;2022-09-13T01:35:41;4.70;;;4.40;;
7813;SDS011;3952;48.364;16.022;2022-09-13T01:38:26;4.50;;;4.13;;
7813;SDS011;3952;48.364;16.022;2022-09-13T01:41:07;3.67;;;3.47;;
7813;SDS011;3952;48.364;16.022;2022-09-13T01:43:48;4.47;;;4.27;;
7813;SDS011;3952;48.364;16.022;2022-09-13T01:46:24;4.53;;;4.27;;
7813;SDS011;3952;48.364;16.022;2022-09-13T01:48:57;4.30;;;3.90;;
7813;SDS011;3952;48.364;16.022;2022-09-13T01:51:30;4.20;;;3.97;;
7813;SDS011;3952;48.364;16.022;2022-09-13T01:54:05;4.47;;;4.23;;
7813;SDS011;3952;48.364;16.022;2022-09-13T01:56:38;4.50;;;4.10;;
7813;SDS011;3952;48.364;16.022;2022-09-13T01:59:13;4.50;;;4.20;;
7813;SDS011;3952;48.364;16.022;2022-09-13T02:01:48;4.83;;;4.50;;
7813;SDS011;3952;48.364;16.022;2022-09-13T02:04:20;5.53;;;4.73;;
7813;SDS011;3952;48.364;16.022;2022-09-13T02:06:51;4.90;;;4.63;;
7813;SDS011;3952;48.364;16.022;2022-09-13T02:09:27;4.53;;;4.23;;
7813;SDS011;3952;48.364;16.022;2022-09-13T02:12:00;5.03;;;4.63;;
7813;SDS011;3952;48.364;16.022;2022-09-13T02:14:33;4.33;;;4.13;;
7813;SDS011;3952;48.364;16.022;2022-09-13T02:17:05;5.00;;;4.63;;
7813;SDS011;3952;48.364;16.022;2022-09-13T02:19:36;5.00;;;4.67;;
7813;SDS011;3952;48.364;16.022;2022-09-13T02:22:07;5.80;;;4.53;;
7813;SDS011;3952;48.364;16.022;2022-09-13T02:24:37;5.00;;;4.70;;
7813;SDS011;3952;48.364;16.022;2022-09-13T02:27:07;5.37;;;5.00;;
7813;SDS011;3952;48.364;16.022;2022-09-13T02:29:38;5.07;;;4.77;;
7813;SDS011;3952;48.364;16.022;2022-09-13T02:32:11;5.20;;;4.70;;
7813;SDS011;3952;48.364;16.022;2022-09-13T02:34:43;4.67;;;4.27;;
7813;SDS011;3952;48.364;16.022;2022-09-13T02:37:13;5.27;;;4.60;;
7813;SDS011;3952;48.364;16.022;2022-09-13T02:39:42;5.30;;;5.00;;
7813;SDS011;3952;48.364;16.022;2022-09-13T02:42:16;4.97;;;4.60;;
7813;SDS011;3952;48.364;16.022;2022-09-13T02:44:47;4.93;;;4.63;;
7813;SDS011;3952;48.364;16.022;2022-09-13T02:47:22;4.67;;;4.20;;
7813;SDS011;3952;48.364;16.022;2022-09-13T02:50:05;4.80;;;4.50;;
7813;SDS011;3952;48.364;16.022;2022-09-13T02:52:46;4.77;;;4.47;;
7813;SDS011;3952;48.364;16.022;2022-09-13T02:55:17;4.13;;;3.83;;
7813;SDS011;3952;48.364;16.022;2022-09-13T02:57:52;4.60;;;4.40;;
7813;SDS011;3952;48.364;16.022;2022-09-13T03:00:25;5.30;;;4.00;;
7813;SDS011;3952;48.364;16.022;2022-09-13T03:02:55;4.90;;;4.50;;
7813;SDS011;3952;48.364;16.022;2022-09-13T03:05:24;4.60;;;4.30;;
7813;SDS011;3952;48.364;16.022;2022-09-13T03:07:52;6.83;;;4.10;;
7813;SDS011;3952;48.364;16.022;2022-09-13T03:10:20;4.40;;;4.20;;
7813;SDS011;3952;48.364;16.022;2022-09-13T03:12:53;5.03;;;4.63;;
7813;SDS011;3952;48.364;16.022;2022-09-13T03:15:41;4.23;;;3.97;;
7813;SDS011;3952;48.364;16.022;2022-09-13T03:18:22;4.73;;;4.43;;
7813;SDS011;3952;48.364;16.022;2022-09-13T03:21:01;5.00;;;4.80;;
7813;SDS011;3952;48.364;16.022;2022-09-13T03:23:36;4.60;;;4.40;;
7813;SDS011;3952;48.364;16.022;2022-09-13T03:26:20;5.63;;;5.23;;
7813;SDS011;3952;48.364;16.022;2022-09-13T03:29:05;4.77;;;4.47;;
7813;SDS011;3952;48.364;16.022;2022-09-13T03:31:41;5.37;;;4.97;;
7813;SDS011;3952;48.364;16.022;2022-09-13T03:34:17;4.87;;;4.57;;
7813;SDS011;3952;48.364;16.022;2022-09-13T03:36:54;5.90;;;5.40;;
7813;SDS011;3952;48.364;16.022;2022-09-13T03:39:28;5.17;;;4.87;;
7813;SDS011;3952;48.364;16.022;2022-09-13T03:42:09;5.03;;;4.73;;
7813;SDS011;3952;48.364;16.022;2022-09-13T03:44:44;4.63;;;4.33;;
7813;SDS011;3952;48.364;16.022;2022-09-13T03:47:14;4.47;;;4.17;;
7813;SDS011;3952;48.364;16.022;2022-09-13T03:49:44;4.13;;;3.93;;
7813;SDS011;3952;48.364;16.022;2022-09-13T03:52:14;3.80;;;3.60;;
7813;SDS011;3952;48.364;16.022;2022-09-13T03:54:42;5.27;;;4.77;;
7813;SDS011;3952;48.364;16.022;2022-09-13T03:57:10;6.27;;;4.50;;
7813;SDS011;3952;48.364;16.022;2022-09-13T03:59:40;5.47;;;4.97;;
7813;SDS011;3952;48.364;16.022;2022-09-13T04:02:11;4.63;;;4.23;;
7813;SDS011;3952;48.364;16.022;2022-09-13T04:04:38;4.60;;;4.40;;
7813;SDS011;3952;48.364;16.022;2022-09-13T04:07:09;4.20;;;4.00;;
7813;SDS011;3952;48.364;16.022;2022-09-13T04:09:37;4.30;;;4.00;;
7813;SDS011;3952;48.364;16.022;2022-09-13T04:12:05;4.20;;;3.90;;
7813;SDS011;3952;48.364;16.022;2022-09-13T04:14:34;4.63;;;4.43;;
7813;SDS011;3952;48.364;16.022;2022-09-13T04:17:01;4.90;;;4.60;;
7813;SDS011;3952;48.364;16.022;2022-09-13T04:19:28;5.37;;;4.90;;
7813;SDS011;3952;48.364;16.022;2022-09-13T04:21:56;4.80;;;4.50;;
7813;SDS011;3952;48.364;16.022;2022-09-13T04:24:26;4.90;;;4.60;;
7813;SDS011;3952;48.364;16.022;2022-09-13T04:26:55;4.77;;;4.47;;
7813;SDS011;3952;48.364;16.022;2022-09-13T04:29:24;6.00;;;4.63;;
7813;SDS011;3952;48.364;16.022;2022-09-13T04:31:53;4.70;;;4.03;;
7813;SDS011;3952;48.364;16.022;2022-09-13T04:34:20;4.20;;;4.00;;
7813;SDS011;3952;48.364;16.022;2022-09-13T04:36:48;3.33;;;3.17;;
7813;SDS011;3952;48.364;16.022;2022-09-13T04:39:16;3.87;;;3.67;;
7813;SDS011;3952;48.364;16.022;2022-09-13T04:41:46;3.73;;;3.50;;
7813;SDS011;3952;48.364;16.022;2022-09-13T04:44:16;3.77;;;3.47;;
7813;SDS011;3952;48.364;16.022;2022-09-13T04:46:45;4.60;;;4.30;;
7813;SDS011;3952;48.364;16.022;2022-09-13T04:49:14;3.80;;;3.60;;
7813;SDS011;3952;48.364;16.022;2022-09-13T04:51:41;4.30;;;4.10;;
7813;SDS011;3952;48.364;16.022;2022-09-13T04:54:09;3.90;;;3.70;;
7813;SDS011;3952;48.364;16.022;2022-09-13T04:56:37;3.73;;;3.43;;
7813;SDS011;3952;48.364;16.022;2022-09-13T04:59:06;3.90;;;3.70;;
7813;SDS011;3952;48.364;16.022;2022-09-13T05:01:35;3.67;;;3.47;;
7813;SDS011;3952;48.364;16.022;2022-09-13T05:04:02;3.90;;;3.70;;
7813;SDS011;3952;48.364;16.022;2022-09-13T05:06:29;3.63;;;3.43;;
7813;SDS011;3952;48.364;16.022;2022-09-13T05:08:57;3.50;;;3.30;;
7813;SDS011;3952;48.364;16.022;2022-09-13T05:11:25;3.30;;;3.20;;
7813;SDS011;3952;48.364;16.022;2022-09-13T05:13:54;4.13;;;3.70;;
7813;SDS011;3952;48.364;16.022;2022-09-13T05:16:24;4.30;;;4.10;;
7813;SDS011;3952;48.364;16.022;2022-09-13T05:18:52;4.27;;;4.07;;
7813;SDS011;3952;48.364;16.022;2022-09-13T05:21:21;4.10;;;3.90;;
7813;SDS011;3952;48.364;16.022;2022-09-13T05:23:49;4.10;;;3.90;;
7813;SDS011;3952;48.364;16.022;2022-09-13T05:26:18;4.20;;;3.93;;
7813;SDS011;3952;48.364;16.022;2022-09-13T05:28:46;4.50;;;4.30;;
7813;SDS011;3952;48.364;16.022;2022-09-13T05:31:15;4.43;;;4.23;;
7813;SDS011;3952;48.364;16.022;2022-09-13T05:33:45;4.83;;;4.53;;
7813;SDS011;3952;48.364;16.022;2022-09-13T05:36:14;4.13;;;3.93;;
7813;SDS011;3952;48.364;16.022;2022-09-13T05:38:41;5.00;;;4.70;;
7813;SDS011;3952;48.364;16.022;2022-09-13T05:41:09;5.17;;;4.77;;
7813;SDS011;3952;48.364;16.022;2022-09-13T05:43:36;4.70;;;4.30;;
7813;SDS011;3952;48.364;16.022;2022-09-13T05:46:04;4.73;;;4.43;;
7813;SDS011;3952;48.364;16.022;2022-09-13T05:48:33;4.47;;;4.27;;
7813;SDS011;3952;48.364;16.022;2022-09-13T05:51:06;4.50;;;4.20;;
7813;SDS011;3952;48.364;16.022;2022-09-13T05:53:34;4.80;;;4.47;;
7813;SDS011;3952;48.364;16.022;2022-09-13T05:56:04;5.40;;;5.00;;
7813;SDS011;3952;48.364;16.022;2022-09-13T05:58:32;4.87;;;4.63;;
7813;SDS011;3952;48.364;16.022;2022-09-13T06:00:59;5.30;;;5.00;;
7813;SDS011;3952;48.364;16.022;2022-09-13T06:03:27;5.30;;;4.90;;
7813;SDS011;3952;48.364;16.022;2022-09-13T06:05:54;6.00;;;5.60;;
7813;SDS011;3952;48.364;16.022;2022-09-13T06:08:24;5.63;;;5.30;;
7813;SDS011;3952;48.364;16.022;2022-09-13T06:10:54;6.20;;;5.80;;
7813;SDS011;3952;48.364;16.022;2022-09-13T06:13:22;6.87;;;6.17;;
7813;SDS011;3952;48.364;16.022;2022-09-13T06:15:50;6.40;;;6.00;;
7813;SDS011;3952;48.364;16.022;2022-09-13T06:18:18;6.67;;;6.27;;
7813;SDS011;3952;48.364;16.022;2022-09-13T06:20:45;5.93;;;5.63;;
7813;SDS011;3952;48.364;16.022;2022-09-13T06:23:13;5.50;;;5.20;;
7813;SDS011;3952;48.364;16.022;2022-09-13T06:25:42;5.90;;;5.20;;
7813;SDS011;3952;48.364;16.022;2022-09-13T06:28:09;5.63;;;5.33;;
7813;SDS011;3952;48.364;16.022;2022-09-13T06:30:36;5.40;;;5.10;;
7813;SDS011;3952;48.364;16.022;2022-09-13T06:33:04;5.97;;;5.60;;
7813;SDS011;3952;48.364;16.022;2022-09-13T06:35:31;5.67;;;5.30;;
7813;SDS011;3952;48.364;16.022;2022-09-13T06:37:58;5.90;;;5.60;;
7813;SDS011;3952;48.364;16.022;2022-09-13T06:40:25;6.50;;;6.20;;
7813;SDS011;3952;48.364;16.022;2022-09-13T06:42:54;6.30;;;5.90;;
7813;SDS011;3952;48.364;16.022;2022-09-13T06:45:21;5.77;;;5.47;;
7813;SDS011;3952;48.364;16.022;2022-09-13T06:47:48;5.67;;;5.37;;
7813;SDS011;3952;48.364;16.022;2022-09-13T06:50:18;6.10;;;5.70;;
7813;SDS011;3952;48.364;16.022;2022-09-13T06:52:45;6.10;;;5.67;;
7813;SDS011;3952;48.364;16.022;2022-09-13T06:55:12;6.87;;;6.37;;
7813;SDS011;3952;48.364;16.022;2022-09-13T06:57:40;6.70;;;6.20;;
7813;SDS011;3952;48.364;16.022;2022-09-13T07:00:10;6.80;;;6.30;;
7813;SDS011;3952;48.364;16.022;2022-09-13T07:02:38;7.03;;;6.53;;
7813;SDS011;3952;48.364;16.022;2022-09-13T07:05:05;6.60;;;6.20;;
7813;SDS011;3952;48.364;16.022;2022-09-13T07:07:35;6.97;;;6.57;;
7813;SDS011;3952;48.364;16.022;2022-09-13T07:10:02;7.40;;;6.90;;
7813;SDS011;3952;48.364;16.022;2022-09-13T07:12:29;7.17;;;6.77;;
7813;SDS011;3952;48.364;16.022;2022-09-13T07:14:57;7.00;;;6.60;;
7813;SDS011;3952;48.364;16.022;2022-09-13T07:17:25;6.80;;;6.30;;
7813;SDS011;3952;48.364;16.022;2022-09-13T07:19:53;7.23;;;6.83;;
7813;SDS011;3952;48.364;16.022;2022-09-13T07:22:20;8.87;;;8.27;;
7813;SDS011;3952;48.364;16.022;2022-09-13T07:24:51;8.37;;;7.87;;
7813;SDS011;3952;48.364;16.022;2022-09-13T07:27:18;9.77;;;9.00;;
7813;SDS011;3952;48.364;16.022;2022-09-13T07:29:45;10.30;;;9.50;;
7813;SDS011;3952;48.364;16.022;2022-09-13T07:32:13;12.43;;;10.63;;
7813;SDS011;3952;48.364;16.022;2022-09-13T07:34:41;15.70;;;12.97;;
7813;SDS011;3952;48.364;16.022;2022-09-13T07:37:09;19.00;;;13.70;;
7813;SDS011;3952;48.364;16.022;2022-09-13T07:39:36;24.13;;;15.17;;
7813;SDS011;3952;48.364;16.022;2022-09-13T07:42:03;20.03;;;14.50;;
7813;SDS011;3952;48.364;16.022;2022-09-13T07:44:31;17.07;;;13.97;;
7813;SDS011;3952;48.364;16.022;2022-09-13T07:46:58;15.23;;;13.60;;
7813;SDS011;3952;48.364;16.022;2022-09-13T07:49:25;13.80;;;12.37;;
7813;SDS011;3952;48.364;16.022;2022-09-13T07:51:53;12.87;;;11.50;;
7813;SDS011;3952;48.364;16.022;2022-09-13T07:54:21;12.00;;;10.83;;
7813;SDS011;3952;48.364;16.022;2022-09-13T07:56:48;11.27;;;10.27;;
7813;SDS011;3952;48.364;16.022;2022-09-13T07:59:16;11.83;;;10.60;;
7813;SDS011;3952;48.364;16.022;2022-09-13T08:01:44;11.97;;;10.77;;
7813;SDS011;3952;48.364;16.022;2022-09-13T08:04:13;10.27;;;9.50;;
7813;SDS011;3952;48.364;16.022;2022-09-13T08:06:42;10.00;;;9.00;;
7813;SDS011;3952;48.364;16.022;2022-09-13T08:09:12;8.50;;;7.80;;
7813;SDS011;3952;48.364;16.022;2022-09-13T08:11:40;10.13;;;9.10;;
7813;SDS011;3952;48.364;16.022;2022-09-13T08:14:10;9.43;;;8.53;;
7813;SDS011;3952;48.364;16.022;2022-09-13T08:16:39;9.37;;;8.40;;
7813;SDS011;3952;48.364;16.022;2022-09-13T08:19:06;8.73;;;8.03;;
7813;SDS011;3952;48.364;16.022;2022-09-13T08:21:37;9.07;;;8.27;;
7813;SDS011;3952;48.364;16.022;2022-09-13T08:24:07;9.33;;;8.53;;
7813;SDS011;3952;48.364;16.022;2022-09-13T08:26:40;8.00;;;7.50;;
7813;SDS011;3952;48.364;16.022;2022-09-13T08:29:07;7.30;;;6.80;;
7813;SDS011;3952;48.364;16.022;2022-09-13T08:31:34;6.77;;;6.30;;
7813;SDS011;3952;48.364;16.022;2022-09-13T08:34:02;7.83;;;7.00;;
7813;SDS011;3952;48.364;16.022;2022-09-13T08:36:29;7.20;;;6.70;;
7813;SDS011;3952;48.364;16.022;2022-09-13T08:38:57;7.10;;;6.60;;
7813;SDS011;3952;48.364;16.022;2022-09-13T08:41:32;6.57;;;6.10;;
7813;SDS011;3952;48.364;16.022;2022-09-13T08:44:23;6.47;;;6.00;;
7813;SDS011;3952;48.364;16.022;2022-09-13T08:46:55;6.00;;;5.60;;
7813;SDS011;3952;48.364;16.022;2022-09-13T08:49:29;5.70;;;5.40;;
7813;SDS011;3952;48.364;16.022;2022-09-13T08:52:00;5.40;;;5.10;;
7813;SDS011;3952;48.364;16.022;2022-09-13T08:54:37;5.27;;;4.77;;
7813;SDS011;3952;48.364;16.022;2022-09-13T08:57:06;5.23;;;4.93;;
7813;SDS011;3952;48.364;16.022;2022-09-13T08:59:49;5.30;;;5.00;;
7813;SDS011;3952;48.364;16.022;2022-09-13T09:02:36;4.93;;;4.73;;
7813;SDS011;3952;48.364;16.022;2022-09-13T09:05:14;5.73;;;5.27;;
7813;SDS011;3952;48.364;16.022;2022-09-13T09:07:44;5.10;;;4.70;;
7813;SDS011;3952;48.364;16.022;2022-09-13T09:10:16;4.17;;;3.97;;
7813;SDS011;3952;48.364;16.022;2022-09-13T09:12:48;5.20;;;4.80;;
7813;SDS011;3952;48.364;16.022;2022-09-13T09:15:20;4.70;;;4.40;;
7813;SDS011;3952;48.364;16.022;2022-09-13T09:17:52;4.17;;;3.87;;
7813;SDS011;3952;48.364;16.022;2022-09-13T09:20:27;4.67;;;4.37;;
7813;SDS011;3952;48.364;16.022;2022-09-13T09:22:59;4.73;;;4.33;;
7813;SDS011;3952;48.364;16.022;2022-09-13T09:25:31;4.63;;;4.43;;
7813;SDS011;3952;48.364;16.022;2022-09-13T09:28:00;4.40;;;4.17;;
7813;SDS011;3952;48.364;16.022;2022-09-13T09:30:35;4.57;;;4.30;;
7813;SDS011;3952;48.364;16.022;2022-09-13T09:33:12;5.03;;;4.73;;
7813;SDS011;3952;48.364;16.022;2022-09-13T09:36:02;4.67;;;4.47;;
7813;SDS011;3952;48.364;16.022;2022-09-13T09:38:37;4.03;;;3.83;;
7813;SDS011;3952;48.364;16.022;2022-09-13T09:41:10;4.13;;;3.93;;
7813;SDS011;3952;48.364;16.022;2022-09-13T09:43:44;4.40;;;4.20;;
7813;SDS011;3952;48.364;16.022;2022-09-13T09:46:18;3.88;;;3.60;;
7813;SDS011;3952;48.364;16.022;2022-09-13T09:48:53;4.40;;;4.10;;
7813;SDS011;3952;48.364;16.022;2022-09-13T09:51:22;4.37;;;4.07;;
7813;SDS011;3952;48.364;16.022;2022-09-13T09:53:52;3.70;;;3.50;;
7813;SDS011;3952;48.364;16.022;2022-09-13T09:56:27;3.95;;;3.65;;
7813;SDS011;3952;48.364;16.022;2022-09-13T09:58:57;4.88;;;4.55;;
7813;SDS011;3952;48.364;16.022;2022-09-13T10:01:26;4.35;;;3.88;;
7813;SDS011;3952;48.364;16.022;2022-09-13T10:04:01;3.92;;;3.72;;
7813;SDS011;3952;48.364;16.022;2022-09-13T10:06:32;4.25;;;4.05;;
7813;SDS011;3952;48.364;16.022;2022-09-13T10:09:03;4.25;;;4.05;;
7813;SDS011;3952;48.364;16.022;2022-09-13T10:11:39;3.80;;;3.70;;
7813;SDS011;3952;48.364;16.022;2022-09-13T10:17:02;3.70;;;3.40;;
7813;SDS011;3952;48.364;16.022;2022-09-13T10:19:49;3.40;;;3.28;;
7813;SDS011;3952;48.364;16.022;2022-09-13T10:22:19;3.15;;;3.05;;
7813;SDS011;3952;48.364;16.022;2022-09-13T10:24:47;3.13;;;2.92;;
7813;SDS011;3952;48.364;16.022;2022-09-13T10:27:18;3.13;;;3.03;;
7813;SDS011;3952;48.364;16.022;2022-09-13T10:29:49;3.60;;;3.30;;
7813;SDS011;3952;48.364;16.022;2022-09-13T10:32:22;3.40;;;3.10;;
7813;SDS011;3952;48.364;16.022;2022-09-13T10:34:49;3.25;;;3.05;;
7813;SDS011;3952;48.364;16.022;2022-09-13T10:37:18;3.83;;;3.63;;
7813;SDS011;3952;48.364;16.022;2022-09-13T10:39:52;3.70;;;3.60;;
7813;SDS011;3952;48.364;16.022;2022-09-13T10:42:24;3.50;;;3.30;;
7813;SDS011;3952;48.364;16.022;2022-09-13T10:44:54;3.08;;;2.80;;
7813;SDS011;3952;48.364;16.022;2022-09-13T10:47:25;2.83;;;2.72;;
7813;SDS011;3952;48.364;16.022;2022-09-13T10:49:58;3.17;;;3.08;;
7813;SDS011;3952;48.364;16.022;2022-09-13T10:52:41;3.05;;;2.95;;
7813;SDS011;3952;48.364;16.022;2022-09-13T10:55:29;3.55;;;3.35;;
7813;SDS011;3952;48.364;16.022;2022-09-13T11:04:23;2.95;;;2.75;;
7813;SDS011;3952;48.364;16.022;2022-09-13T11:07:14;2.92;;;2.83;;
7813;SDS011;3952;48.364;16.022;2022-09-13T11:09:51;3.13;;;3.03;;
7813;SDS011;3952;48.364;16.022;2022-09-13T11:12:23;2.70;;;2.60;;
7813;SDS011;3952;48.364;16.022;2022-09-13T11:15:03;2.97;;;2.80;;
7813;SDS011;3952;48.364;16.022;2022-09-13T11:17:54;3.03;;;2.83;;
7813;SDS011;3952;48.364;16.022;2022-09-13T11:20:44;2.92;;;2.78;;
7813;SDS011;3952;48.364;16.022;2022-09-13T11:23:29;3.35;;;2.72;;
7813;SDS011;3952;48.364;16.022;2022-09-13T11:26:22;3.00;;;2.80;;
7813;SDS011;3952;48.364;16.022;2022-09-13T11:29:01;3.17;;;3.08;;
7813;SDS011;3952;48.364;16.022;2022-09-13T11:31:41;3.17;;;2.97;;
7813;SDS011;3952;48.364;16.022;2022-09-13T11:34:20;3.25;;;3.13;;
7813;SDS011;3952;48.364;16.022;2022-09-13T11:40:01;3.25;;;2.95;;
7813;SDS011;3952;48.364;16.022;2022-09-13T11:42:41;3.08;;;2.97;;
7813;SDS011;3952;48.364;16.022;2022-09-13T11:45:19;2.67;;;2.58;;
7813;SDS011;3952;48.364;16.022;2022-09-13T11:47:58;3.00;;;2.90;;
7813;SDS011;3952;48.364;16.022;2022-09-13T11:50:44;2.80;;;2.70;;
7813;SDS011;3952;48.364;16.022;2022-09-13T11:53:26;4.45;;;3.22;;
7813;SDS011;3952;48.364;16.022;2022-09-13T11:56:18;2.30;;;2.20;;
7813;SDS011;3952;48.364;16.022;2022-09-13T11:58:50;2.80;;;2.70;;
7813;SDS011;3952;48.364;16.022;2022-09-13T12:01:23;2.78;;;2.67;;
7813;SDS011;3952;48.364;16.022;2022-09-13T12:03:55;2.75;;;2.65;;
7813;SDS011;3952;48.364;16.022;2022-09-13T12:06:27;2.88;;;2.78;;
7813;SDS011;3952;48.364;16.022;2022-09-13T12:08:58;2.75;;;2.65;;
7813;SDS011;3952;48.364;16.022;2022-09-13T12:11:31;2.95;;;2.75;;
7813;SDS011;3952;48.364;16.022;2022-09-13T12:14:02;2.60;;;2.40;;
7813;SDS011;3952;48.364;16.022;2022-09-13T12:16:33;2.70;;;2.60;;
7813;SDS011;3952;48.364;16.022;2022-09-13T12:19:04;3.03;;;2.83;;
7813;SDS011;3952;48.364;16.022;2022-09-13T12:21:39;2.85;;;2.70;;
7813;SDS011;3952;48.364;16.022;2022-09-13T12:24:12;3.25;;;2.53;;
7813;SDS011;3952;48.364;16.022;2022-09-13T12:26:46;2.70;;;2.60;;
7813;SDS011;3952;48.364;16.022;2022-09-13T12:29:18;2.60;;;2.40;;
7813;SDS011;3952;48.364;16.022;2022-09-13T12:31:54;3.45;;;2.80;;
7813;SDS011;3952;48.364;16.022;2022-09-13T12:34:26;2.38;;;2.28;;
7813;SDS011;3952;48.364;16.022;2022-09-13T12:37:14;2.83;;;2.72;;
7813;SDS011;3952;48.364;16.022;2022-09-13T12:40:04;2.58;;;2.47;;
7813;SDS011;3952;48.364;16.022;2022-09-13T12:46:08;2.70;;;2.60;;
7813;SDS011;3952;48.364;16.022;2022-09-13T12:52:05;2.60;;;2.42;;
7813;SDS011;3952;48.364;16.022;2022-09-13T12:57:56;2.30;;;2.20;;
7813;SDS011;3952;48.364;16.022;2022-09-13T13:00:36;2.13;;;2.03;;
7813;SDS011;3952;48.364;16.022;2022-09-13T13:03:13;1.88;;;1.88;;
7813;SDS011;3952;48.364;16.022;2022-09-13T13:05:44;2.00;;;1.90;;
7813;SDS011;3952;48.364;16.022;2022-09-13T13:08:23;2.47;;;2.28;;
7813;SDS011;3952;48.364;16.022;2022-09-13T13:10:59;2.20;;;2.00;;
7813;SDS011;3952;48.364;16.022;2022-09-13T13:13:35;1.92;;;1.83;;
7813;SDS011;3952;48.364;16.022;2022-09-13T13:18:49;1.92;;;1.83;;
7813;SDS011;3952;48.364;16.022;2022-09-13T13:21:22;2.20;;;2.00;;
7813;SDS011;3952;48.364;16.022;2022-09-13T13:26:59;3.60;;;2.03;;
7813;SDS011;3952;48.364;16.022;2022-09-13T13:29:26;4.05;;;2.10;;
7813;SDS011;3952;48.364;16.022;2022-09-13T13:32:07;11.32;;;2.60;;
7813;SDS011;3952;48.364;16.022;2022-09-13T13:34:47;2.33;;;2.00;;
7813;SDS011;3952;48.364;16.022;2022-09-13T13:37:31;2.47;;;2.08;;
7813;SDS011;3952;48.364;16.022;2022-09-13T13:58:10;1.95;;;1.85;;
7813;SDS011;3952;48.364;16.022;2022-09-13T14:00:52;1.98;;;1.88;;
7813;SDS011;3952;48.364;16.022;2022-09-13T14:03:22;1.88;;;1.88;;
7813;SDS011;3952;48.364;16.022;2022-09-13T14:05:59;1.67;;;1.67;;
7813;SDS011;3952;48.364;16.022;2022-09-13T14:08:42;2.42;;;1.80;;
7813;SDS011;3952;48.364;16.022;2022-09-13T14:11:21;2.13;;;2.03;;
7813;SDS011;3952;48.364;16.022;2022-09-13T14:14:02;1.77;;;1.75;;
7813;SDS011;3952;48.364;16.022;2022-09-13T14:16:48;1.55;;;1.55;;
7813;SDS011;3952;48.364;16.022;2022-09-13T14:19:23;1.70;;;1.70;;
7813;SDS011;3952;48.364;16.022;2022-09-13T14:22:10;2.00;;;1.77;;
7813;SDS011;3952;48.364;16.022;2022-09-13T14:24:40;2.25;;;2.15;;
7813;SDS011;3952;48.364;16.022;2022-09-13T14:27:15;1.60;;;1.60;;
7813;SDS011;3952;48.364;16.022;2022-09-13T14:29:45;2.08;;;1.98;;
7813;SDS011;3952;48.364;16.022;2022-09-13T14:32:15;2.10;;;2.00;;
7813;SDS011;3952;48.364;16.022;2022-09-13T14:34:52;1.92;;;1.90;;
7813;SDS011;3952;48.364;16.022;2022-09-13T14:37:24;1.83;;;1.83;;
7813;SDS011;3952;48.364;16.022;2022-09-13T14:39:57;2.00;;;1.90;;
7813;SDS011;3952;48.364;16.022;2022-09-13T14:42:26;1.83;;;1.83;;
7813;SDS011;3952;48.364;16.022;2022-09-13T14:45:03;1.80;;;1.80;;
7813;SDS011;3952;48.364;16.022;2022-09-13T14:47:32;2.63;;;1.80;;
7813;SDS011;3952;48.364;16.022;2022-09-13T14:50:07;1.65;;;1.60;;
7813;SDS011;3952;48.364;16.022;2022-09-13T14:52:42;1.95;;;1.83;;
7813;SDS011;3952;48.364;16.022;2022-09-13T14:55:15;1.63;;;1.63;;
7813;SDS011;3952;48.364;16.022;2022-09-13T14:57:47;2.13;;;1.73;;
7813;SDS011;3952;48.364;16.022;2022-09-13T15:00:19;6.20;;;1.85;;
7813;SDS011;3952;48.364;16.022;2022-09-13T15:02:50;1.58;;;1.55;;
7813;SDS011;3952;48.364;16.022;2022-09-13T15:05:19;3.33;;;1.90;;
7813;SDS011;3952;48.364;16.022;2022-09-13T15:07:50;2.22;;;2.03;;
7813;SDS011;3952;48.364;16.022;2022-09-13T15:10:22;1.92;;;1.83;;
7813;SDS011;3952;48.364;16.022;2022-09-13T15:12:52;2.60;;;2.15;;
7813;SDS011;3952;48.364;16.022;2022-09-13T15:15:22;2.00;;;1.90;;
7813;SDS011;3952;48.364;16.022;2022-09-13T15:17:53;1.92;;;1.83;;
7813;SDS011;3952;48.364;16.022;2022-09-13T15:20:22;1.70;;;1.70;;
7813;SDS011;3952;48.364;16.022;2022-09-13T15:22:52;2.00;;;1.90;;
7813;SDS011;3952;48.364;16.022;2022-09-13T15:25:21;2.15;;;1.52;;
7813;SDS011;3952;48.364;16.022;2022-09-13T15:27:52;2.13;;;1.90;;
7813;SDS011;3952;48.364;16.022;2022-09-13T15:30:24;2.10;;;2.00;;
7813;SDS011;3952;48.364;16.022;2022-09-13T15:33:13;2.00;;;1.90;;
7813;SDS011;3952;48.364;16.022;2022-09-13T15:35:45;1.83;;;1.80;;
7813;SDS011;3952;48.364;16.022;2022-09-13T15:38:20;2.00;;;1.90;;
7813;SDS011;3952;48.364;16.022;2022-09-13T15:40:57;2.35;;;1.90;;
7813;SDS011;3952;48.364;16.022;2022-09-13T15:43:28;2.10;;;2.00;;
7813;SDS011;3952;48.364;16.022;2022-09-13T15:45:57;2.60;;;2.40;;
7813;SDS011;3952;48.364;16.022;2022-09-13T15:48:26;1.90;;;1.80;;
7813;SDS011;3952;48.364;16.022;2022-09-13T15:51:03;1.83;;;1.70;;
7813;SDS011;3952;48.364;16.022;2022-09-13T15:53:34;2.20;;;2.10;;
7813;SDS011;3952;48.364;16.022;2022-09-13T15:56:03;2.43;;;2.00;;
7813;SDS011;3952;48.364;16.022;2022-09-13T15:58:32;2.43;;;2.03;;
7813;SDS011;3952;48.364;16.022;2022-09-13T16:01:00;1.60;;;1.60;;
7813;SDS011;3952;48.364;16.022;2022-09-13T16:03:28;2.10;;;2.00;;
7813;SDS011;3952;48.364;16.022;2022-09-13T16:05:55;2.37;;;2.13;;
7813;SDS011;3952;48.364;16.022;2022-09-13T16:08:23;2.17;;;2.10;;
7813;SDS011;3952;48.364;16.022;2022-09-13T16:10:52;2.30;;;2.20;;
7813;SDS011;3952;48.364;16.022;2022-09-13T16:13:19;2.20;;;2.10;;
7813;SDS011;3952;48.364;16.022;2022-09-13T16:15:47;2.20;;;2.00;;
7813;SDS011;3952;48.364;16.022;2022-09-13T16:18:14;2.20;;;2.10;;
7813;SDS011;3952;48.364;16.022;2022-09-13T16:20:42;2.43;;;2.23;;
7813;SDS011;3952;48.364;16.022;2022-09-13T16:23:09;2.50;;;2.40;;
7813;SDS011;3952;48.364;16.022;2022-09-13T16:25:36;2.27;;;2.17;;